sensor_id;sensor_type;location;lat;lon;timestamp;P1;durP1;ratioP1;P2;durP2;ratioP2
15608;SDS011;28705;45.642;13.758;2022-08-02T00:01:18;2.17;;;2.08;;
15608;SDS011;28705;45.642;13.758;2022-08-02T00:03:45;3.90;;;2.22;;
15608;SDS011;28705;45.642;13.758;2022-08-02T00:06:12;2.35;;;2.17;;
15608;SDS011;28705;45.642;13.758;2022-08-02T00:08:39;2.55;;;1.92;;
15608;SDS011;28705;45.642;13.758;2022-08-02T00:11:08;3.25;;;2.22;;
15608;SDS011;28705;45.642;13.758;2022-08-02T00:13:35;3.22;;;2.50;;
15608;SDS011;28705;45.642;13.758;2022-08-02T00:16:02;4.50;;;2.47;;
15608;SDS011;28705;45.642;13.758;2022-08-02T00:18:29;4.43;;;2.20;;
15608;SDS011;28705;45.642;13.758;2022-08-02T00:20:56;4.47;;;3.00;;
15608;SDS011;28705;45.642;13.758;2022-08-02T00:23:23;3.47;;;1.98;;
15608;SDS011;28705;45.642;13.758;2022-08-02T00:25:50;3.33;;;2.30;;
15608;SDS011;28705;45.642;13.758;2022-08-02T00:28:19;2.50;;;2.30;;
15608;SDS011;28705;45.642;13.758;2022-08-02T00:30:45;3.15;;;2.10;;
15608;SDS011;28705;45.642;13.758;2022-08-02T00:33:12;2.40;;;2.20;;
15608;SDS011;28705;45.642;13.758;2022-08-02T00:35:39;2.20;;;2.10;;
15608;SDS011;28705;45.642;13.758;2022-08-02T00:38:06;2.83;;;2.15;;
15608;SDS011;28705;45.642;13.758;2022-08-02T00:40:33;2.92;;;2.10;;
15608;SDS011;28705;45.642;13.758;2022-08-02T00:43:01;8.20;;;2.33;;
15608;SDS011;28705;45.642;13.758;2022-08-02T00:45:32;2.72;;;2.08;;
15608;SDS011;28705;45.642;13.758;2022-08-02T00:47:59;8.00;;;2.80;;
15608;SDS011;28705;45.642;13.758;2022-08-02T00:50:26;5.80;;;2.40;;
15608;SDS011;28705;45.642;13.758;2022-08-02T00:52:53;3.05;;;2.65;;
15608;SDS011;28705;45.642;13.758;2022-08-02T00:55:21;3.20;;;2.25;;
15608;SDS011;28705;45.642;13.758;2022-08-02T00:57:49;2.88;;;2.22;;
15608;SDS011;28705;45.642;13.758;2022-08-02T01:00:16;2.30;;;2.10;;
15608;SDS011;28705;45.642;13.758;2022-08-02T01:02:44;3.88;;;2.35;;
15608;SDS011;28705;45.642;13.758;2022-08-02T01:05:11;1.95;;;1.85;;
15608;SDS011;28705;45.642;13.758;2022-08-02T01:07:39;2.38;;;1.95;;
15608;SDS011;28705;45.642;13.758;2022-08-02T01:10:06;2.17;;;1.98;;
15608;SDS011;28705;45.642;13.758;2022-08-02T01:12:34;3.33;;;2.25;;
15608;SDS011;28705;45.642;13.758;2022-08-02T01:15:02;4.20;;;2.10;;
15608;SDS011;28705;45.642;13.758;2022-08-02T01:17:33;2.15;;;1.98;;
15608;SDS011;28705;45.642;13.758;2022-08-02T01:20:07;2.20;;;2.08;;
15608;SDS011;28705;45.642;13.758;2022-08-02T01:23:01;2.30;;;2.10;;
15608;SDS011;28705;45.642;13.758;2022-08-02T01:25:44;1.83;;;1.73;;
15608;SDS011;28705;45.642;13.758;2022-08-02T01:28:29;2.95;;;2.35;;
15608;SDS011;28705;45.642;13.758;2022-08-02T01:31:01;3.45;;;2.00;;
15608;SDS011;28705;45.642;13.758;2022-08-02T01:33:34;1.73;;;1.63;;
15608;SDS011;28705;45.642;13.758;2022-08-02T01:36:06;1.65;;;1.52;;
15608;SDS011;28705;45.642;13.758;2022-08-02T01:38:48;1.40;;;1.30;;
15608;SDS011;28705;45.642;13.758;2022-08-02T01:41:19;1.73;;;1.60;;
15608;SDS011;28705;45.642;13.758;2022-08-02T01:43:50;2.63;;;1.50;;
15608;SDS011;28705;45.642;13.758;2022-08-02T01:46:20;3.10;;;1.42;;
15608;SDS011;28705;45.642;13.758;2022-08-02T01:48:49;2.00;;;1.70;;
15608;SDS011;28705;45.642;13.758;2022-08-02T01:51:18;1.48;;;1.25;;
15608;SDS011;28705;45.642;13.758;2022-08-02T01:54:08;1.75;;;1.60;;
15608;SDS011;28705;45.642;13.758;2022-08-02T01:56:37;1.40;;;1.10;;
15608;SDS011;28705;45.642;13.758;2022-08-02T01:59:07;1.73;;;1.63;;
15608;SDS011;28705;45.642;13.758;2022-08-02T02:01:36;2.95;;;1.48;;
15608;SDS011;28705;45.642;13.758;2022-08-02T02:04:04;1.10;;;1.10;;
15608;SDS011;28705;45.642;13.758;2022-08-02T02:06:33;1.65;;;1.08;;
15608;SDS011;28705;45.642;13.758;2022-08-02T02:09:02;3.63;;;1.30;;
15608;SDS011;28705;45.642;13.758;2022-08-02T02:11:40;1.33;;;1.23;;
15608;SDS011;28705;45.642;13.758;2022-08-02T02:14:10;2.15;;;1.27;;
15608;SDS011;28705;45.642;13.758;2022-08-02T02:16:39;2.20;;;1.60;;
15608;SDS011;28705;45.642;13.758;2022-08-02T02:19:09;1.40;;;1.30;;
15608;SDS011;28705;45.642;13.758;2022-08-02T02:21:40;1.27;;;1.17;;
15608;SDS011;28705;45.642;13.758;2022-08-02T02:24:07;1.48;;;1.38;;
15608;SDS011;28705;45.642;13.758;2022-08-02T02:26:35;0.88;;;0.88;;
15608;SDS011;28705;45.642;13.758;2022-08-02T02:29:04;1.33;;;1.20;;
15608;SDS011;28705;45.642;13.758;2022-08-02T02:31:35;1.60;;;1.20;;
15608;SDS011;28705;45.642;13.758;2022-08-02T02:34:07;1.45;;;0.98;;
15608;SDS011;28705;45.642;13.758;2022-08-02T02:36:37;1.45;;;1.27;;
15608;SDS011;28705;45.642;13.758;2022-08-02T02:39:06;1.25;;;1.15;;
15608;SDS011;28705;45.642;13.758;2022-08-02T02:41:36;1.05;;;0.90;;
15608;SDS011;28705;45.642;13.758;2022-08-02T02:44:04;1.00;;;0.93;;
15608;SDS011;28705;45.642;13.758;2022-08-02T02:46:36;2.28;;;1.00;;
15608;SDS011;28705;45.642;13.758;2022-08-02T02:49:03;1.40;;;1.23;;
15608;SDS011;28705;45.642;13.758;2022-08-02T02:51:30;3.03;;;1.73;;
15608;SDS011;28705;45.642;13.758;2022-08-02T02:53:58;1.33;;;1.23;;
15608;SDS011;28705;45.642;13.758;2022-08-02T02:56:26;1.33;;;1.27;;
15608;SDS011;28705;45.642;13.758;2022-08-02T02:58:54;1.48;;;1.30;;
15608;SDS011;28705;45.642;13.758;2022-08-02T03:01:21;1.27;;;1.25;;
15608;SDS011;28705;45.642;13.758;2022-08-02T03:03:59;1.10;;;1.00;;
15608;SDS011;28705;45.642;13.758;2022-08-02T03:06:27;1.13;;;1.00;;
15608;SDS011;28705;45.642;13.758;2022-08-02T03:08:55;1.50;;;1.08;;
15608;SDS011;28705;45.642;13.758;2022-08-02T03:11:22;1.42;;;1.30;;
15608;SDS011;28705;45.642;13.758;2022-08-02T03:13:53;1.58;;;1.48;;
15608;SDS011;28705;45.642;13.758;2022-08-02T03:16:22;1.30;;;1.20;;
15608;SDS011;28705;45.642;13.758;2022-08-02T03:18:50;1.25;;;1.25;;
15608;SDS011;28705;45.642;13.758;2022-08-02T03:21:18;1.25;;;1.15;;
15608;SDS011;28705;45.642;13.758;2022-08-02T03:23:45;1.05;;;0.95;;
15608;SDS011;28705;45.642;13.758;2022-08-02T03:26:13;3.20;;;0.88;;
15608;SDS011;28705;45.642;13.758;2022-08-02T03:28:41;1.00;;;1.00;;
15608;SDS011;28705;45.642;13.758;2022-08-02T03:31:08;1.10;;;1.10;;
15608;SDS011;28705;45.642;13.758;2022-08-02T03:33:36;1.08;;;0.98;;
15608;SDS011;28705;45.642;13.758;2022-08-02T03:36:06;0.90;;;0.90;;
15608;SDS011;28705;45.642;13.758;2022-08-02T03:38:38;1.50;;;1.30;;
15608;SDS011;28705;45.642;13.758;2022-08-02T03:41:06;1.40;;;1.00;;
15608;SDS011;28705;45.642;13.758;2022-08-02T03:43:35;0.90;;;0.90;;
15608;SDS011;28705;45.642;13.758;2022-08-02T03:46:04;1.25;;;1.15;;
15608;SDS011;28705;45.642;13.758;2022-08-02T03:48:32;1.15;;;1.00;;
15608;SDS011;28705;45.642;13.758;2022-08-02T03:51:01;1.10;;;1.10;;
15608;SDS011;28705;45.642;13.758;2022-08-02T03:53:29;1.10;;;1.10;;
15608;SDS011;28705;45.642;13.758;2022-08-02T03:55:57;1.20;;;1.10;;
15608;SDS011;28705;45.642;13.758;2022-08-02T03:58:25;1.30;;;1.20;;
15608;SDS011;28705;45.642;13.758;2022-08-02T04:00:53;1.00;;;1.00;;
15608;SDS011;28705;45.642;13.758;2022-08-02T04:03:22;1.13;;;1.00;;
15608;SDS011;28705;45.642;13.758;2022-08-02T04:05:49;0.90;;;0.90;;
15608;SDS011;28705;45.642;13.758;2022-08-02T04:08:16;1.50;;;1.40;;
15608;SDS011;28705;45.642;13.758;2022-08-02T04:10:43;1.15;;;1.10;;
15608;SDS011;28705;45.642;13.758;2022-08-02T04:13:30;0.73;;;0.73;;
15608;SDS011;28705;45.642;13.758;2022-08-02T04:16:01;1.23;;;1.13;;
15608;SDS011;28705;45.642;13.758;2022-08-02T04:18:33;0.93;;;0.93;;
15608;SDS011;28705;45.642;13.758;2022-08-02T04:21:04;1.10;;;1.00;;
15608;SDS011;28705;45.642;13.758;2022-08-02T04:23:35;1.20;;;1.10;;
15608;SDS011;28705;45.642;13.758;2022-08-02T04:26:03;0.88;;;0.88;;
15608;SDS011;28705;45.642;13.758;2022-08-02T04:28:32;0.90;;;0.90;;
15608;SDS011;28705;45.642;13.758;2022-08-02T04:31:01;1.30;;;1.00;;
15608;SDS011;28705;45.642;13.758;2022-08-02T04:33:29;0.95;;;0.90;;
15608;SDS011;28705;45.642;13.758;2022-08-02T04:35:57;0.93;;;0.80;;
15608;SDS011;28705;45.642;13.758;2022-08-02T04:38:24;1.23;;;1.13;;
15608;SDS011;28705;45.642;13.758;2022-08-02T04:40:51;1.10;;;0.95;;
15608;SDS011;28705;45.642;13.758;2022-08-02T04:43:19;2.85;;;1.40;;
15608;SDS011;28705;45.642;13.758;2022-08-02T04:45:51;1.35;;;1.25;;
15608;SDS011;28705;45.642;13.758;2022-08-02T04:48:19;1.20;;;1.10;;
15608;SDS011;28705;45.642;13.758;2022-08-02T04:50:47;0.85;;;0.85;;
15608;SDS011;28705;45.642;13.758;2022-08-02T04:53:14;0.82;;;0.82;;
15608;SDS011;28705;45.642;13.758;2022-08-02T04:55:42;1.25;;;0.90;;
15608;SDS011;28705;45.642;13.758;2022-08-02T04:58:09;1.10;;;1.10;;
15608;SDS011;28705;45.642;13.758;2022-08-02T05:00:36;1.00;;;1.00;;
15608;SDS011;28705;45.642;13.758;2022-08-02T05:03:04;1.23;;;1.20;;
15608;SDS011;28705;45.642;13.758;2022-08-02T05:05:31;1.05;;;0.95;;
15608;SDS011;28705;45.642;13.758;2022-08-02T05:07:58;1.48;;;1.10;;
15608;SDS011;28705;45.642;13.758;2022-08-02T05:10:25;1.40;;;1.00;;
15608;SDS011;28705;45.642;13.758;2022-08-02T05:12:52;0.93;;;0.88;;
15608;SDS011;28705;45.642;13.758;2022-08-02T05:15:19;1.27;;;1.08;;
15608;SDS011;28705;45.642;13.758;2022-08-02T05:17:47;1.45;;;1.10;;
15608;SDS011;28705;45.642;13.758;2022-08-02T05:20:15;1.00;;;1.00;;
15608;SDS011;28705;45.642;13.758;2022-08-02T05:22:43;1.00;;;1.00;;
15608;SDS011;28705;45.642;13.758;2022-08-02T05:25:10;1.02;;;0.93;;
15608;SDS011;28705;45.642;13.758;2022-08-02T05:27:37;2.30;;;1.08;;
15608;SDS011;28705;45.642;13.758;2022-08-02T05:30:05;1.40;;;1.30;;
15608;SDS011;28705;45.642;13.758;2022-08-02T05:32:33;1.55;;;0.88;;
15608;SDS011;28705;45.642;13.758;2022-08-02T05:35:07;1.23;;;1.10;;
15608;SDS011;28705;45.642;13.758;2022-08-02T05:37:36;1.25;;;1.00;;
15608;SDS011;28705;45.642;13.758;2022-08-02T05:40:04;1.95;;;1.00;;
15608;SDS011;28705;45.642;13.758;2022-08-02T05:42:31;1.30;;;1.20;;
15608;SDS011;28705;45.642;13.758;2022-08-02T05:44:58;1.25;;;1.20;;
15608;SDS011;28705;45.642;13.758;2022-08-02T05:47:25;1.10;;;1.00;;
15608;SDS011;28705;45.642;13.758;2022-08-02T05:49:53;1.33;;;1.23;;
15608;SDS011;28705;45.642;13.758;2022-08-02T05:52:20;3.20;;;1.08;;
15608;SDS011;28705;45.642;13.758;2022-08-02T05:54:56;1.02;;;0.93;;
15608;SDS011;28705;45.642;13.758;2022-08-02T05:57:33;1.95;;;1.02;;
15608;SDS011;28705;45.642;13.758;2022-08-02T06:00:06;3.33;;;0.98;;
15608;SDS011;28705;45.642;13.758;2022-08-02T06:02:38;4.47;;;0.93;;
15608;SDS011;28705;45.642;13.758;2022-08-02T06:05:14;1.42;;;1.08;;
15608;SDS011;28705;45.642;13.758;2022-08-02T06:07:44;1.40;;;1.02;;
15608;SDS011;28705;45.642;13.758;2022-08-02T06:10:15;1.33;;;1.10;;
15608;SDS011;28705;45.642;13.758;2022-08-02T06:12:45;1.58;;;1.30;;
15608;SDS011;28705;45.642;13.758;2022-08-02T06:15:15;1.15;;;1.10;;
15608;SDS011;28705;45.642;13.758;2022-08-02T06:17:43;1.10;;;1.00;;
15608;SDS011;28705;45.642;13.758;2022-08-02T06:20:11;1.13;;;1.02;;
15608;SDS011;28705;45.642;13.758;2022-08-02T06:22:39;1.38;;;1.27;;
15608;SDS011;28705;45.642;13.758;2022-08-02T06:25:08;1.25;;;1.08;;
15608;SDS011;28705;45.642;13.758;2022-08-02T06:27:37;1.40;;;1.30;;
15608;SDS011;28705;45.642;13.758;2022-08-02T06:30:05;0.95;;;0.95;;
15608;SDS011;28705;45.642;13.758;2022-08-02T06:32:34;1.15;;;1.13;;
15608;SDS011;28705;45.642;13.758;2022-08-02T06:35:01;1.25;;;1.25;;
15608;SDS011;28705;45.642;13.758;2022-08-02T06:37:31;2.20;;;1.30;;
15608;SDS011;28705;45.642;13.758;2022-08-02T06:40:05;1.75;;;1.33;;
15608;SDS011;28705;45.642;13.758;2022-08-02T06:42:43;2.17;;;1.55;;
15608;SDS011;28705;45.642;13.758;2022-08-02T06:45:14;1.88;;;1.50;;
15608;SDS011;28705;45.642;13.758;2022-08-02T06:47:41;3.22;;;1.60;;
15608;SDS011;28705;45.642;13.758;2022-08-02T06:50:09;1.58;;;1.27;;
15608;SDS011;28705;45.642;13.758;2022-08-02T06:52:36;2.40;;;1.48;;
15608;SDS011;28705;45.642;13.758;2022-08-02T06:55:03;2.88;;;1.65;;
15608;SDS011;28705;45.642;13.758;2022-08-02T06:57:31;3.55;;;2.10;;
15608;SDS011;28705;45.642;13.758;2022-08-02T07:00:00;7.57;;;2.15;;
15608;SDS011;28705;45.642;13.758;2022-08-02T07:02:31;7.10;;;1.77;;
15608;SDS011;28705;45.642;13.758;2022-08-02T07:05:00;1.80;;;1.60;;
15608;SDS011;28705;45.642;13.758;2022-08-02T07:07:27;3.25;;;1.70;;
15608;SDS011;28705;45.642;13.758;2022-08-02T07:09:54;2.95;;;1.65;;
15608;SDS011;28705;45.642;13.758;2022-08-02T07:12:22;2.53;;;1.83;;
15608;SDS011;28705;45.642;13.758;2022-08-02T07:14:49;2.42;;;2.20;;
15608;SDS011;28705;45.642;13.758;2022-08-02T07:17:18;3.38;;;2.88;;
15608;SDS011;28705;45.642;13.758;2022-08-02T07:19:45;2.67;;;1.50;;
15608;SDS011;28705;45.642;13.758;2022-08-02T07:22:12;1.70;;;1.60;;
15608;SDS011;28705;45.642;13.758;2022-08-02T07:24:39;2.75;;;1.65;;
15608;SDS011;28705;45.642;13.758;2022-08-02T07:27:06;2.33;;;1.65;;
15608;SDS011;28705;45.642;13.758;2022-08-02T07:29:33;2.15;;;1.85;;
15608;SDS011;28705;45.642;13.758;2022-08-02T07:32:00;4.10;;;2.00;;
15608;SDS011;28705;45.642;13.758;2022-08-02T07:34:28;3.95;;;1.90;;
15608;SDS011;28705;45.642;13.758;2022-08-02T07:36:55;4.47;;;1.80;;
15608;SDS011;28705;45.642;13.758;2022-08-02T07:39:22;5.32;;;2.00;;
15608;SDS011;28705;45.642;13.758;2022-08-02T07:41:49;3.30;;;1.63;;
15608;SDS011;28705;45.642;13.758;2022-08-02T07:44:16;4.55;;;1.50;;
15608;SDS011;28705;45.642;13.758;2022-08-02T07:46:43;1.67;;;1.58;;
15608;SDS011;28705;45.642;13.758;2022-08-02T07:49:11;6.03;;;1.80;;
15608;SDS011;28705;45.642;13.758;2022-08-02T07:51:44;2.17;;;1.48;;
15608;SDS011;28705;45.642;13.758;2022-08-02T07:54:11;2.30;;;1.58;;
15608;SDS011;28705;45.642;13.758;2022-08-02T07:56:38;2.50;;;1.17;;
15608;SDS011;28705;45.642;13.758;2022-08-02T07:59:05;1.90;;;1.30;;
15608;SDS011;28705;45.642;13.758;2022-08-02T08:01:34;1.58;;;1.38;;
15608;SDS011;28705;45.642;13.758;2022-08-02T08:04:01;2.00;;;1.30;;
15608;SDS011;28705;45.642;13.758;2022-08-02T08:06:28;2.45;;;1.40;;
15608;SDS011;28705;45.642;13.758;2022-08-02T08:08:57;3.20;;;1.48;;
15608;SDS011;28705;45.642;13.758;2022-08-02T08:11:24;1.45;;;1.10;;
15608;SDS011;28705;45.642;13.758;2022-08-02T08:13:51;3.03;;;1.20;;
15608;SDS011;28705;45.642;13.758;2022-08-02T08:16:18;1.15;;;1.05;;
15608;SDS011;28705;45.642;13.758;2022-08-02T08:18:45;1.30;;;1.20;;
15608;SDS011;28705;45.642;13.758;2022-08-02T08:21:12;3.08;;;1.20;;
15608;SDS011;28705;45.642;13.758;2022-08-02T08:23:39;1.83;;;1.13;;
15608;SDS011;28705;45.642;13.758;2022-08-02T08:26:07;1.42;;;1.33;;
15608;SDS011;28705;45.642;13.758;2022-08-02T08:28:34;2.20;;;1.80;;
15608;SDS011;28705;45.642;13.758;2022-08-02T08:31:01;4.43;;;2.13;;
15608;SDS011;28705;45.642;13.758;2022-08-02T08:33:28;2.20;;;2.00;;
15608;SDS011;28705;45.642;13.758;2022-08-02T08:35:55;2.35;;;1.63;;
15608;SDS011;28705;45.642;13.758;2022-08-02T08:38:22;1.58;;;1.48;;
15608;SDS011;28705;45.642;13.758;2022-08-02T08:40:49;2.28;;;2.05;;
15608;SDS011;28705;45.642;13.758;2022-08-02T08:43:18;2.03;;;1.80;;
15608;SDS011;28705;45.642;13.758;2022-08-02T08:45:45;2.08;;;1.80;;
15608;SDS011;28705;45.642;13.758;2022-08-02T08:48:18;2.30;;;2.13;;
15608;SDS011;28705;45.642;13.758;2022-08-02T08:50:49;2.50;;;1.77;;
15608;SDS011;28705;45.642;13.758;2022-08-02T08:53:19;2.00;;;1.75;;
15608;SDS011;28705;45.642;13.758;2022-08-02T08:55:50;2.65;;;2.00;;
15608;SDS011;28705;45.642;13.758;2022-08-02T08:58:21;3.13;;;2.28;;
15608;SDS011;28705;45.642;13.758;2022-08-02T09:00:49;2.38;;;2.00;;
15608;SDS011;28705;45.642;13.758;2022-08-02T09:03:16;1.90;;;1.80;;
15608;SDS011;28705;45.642;13.758;2022-08-02T09:05:43;3.08;;;1.98;;
15608;SDS011;28705;45.642;13.758;2022-08-02T09:08:27;2.88;;;1.88;;
15608;SDS011;28705;45.642;13.758;2022-08-02T09:10:56;3.50;;;1.48;;
15608;SDS011;28705;45.642;13.758;2022-08-02T09:13:25;1.90;;;1.65;;
15608;SDS011;28705;45.642;13.758;2022-08-02T09:15:54;2.40;;;1.52;;
15608;SDS011;28705;45.642;13.758;2022-08-02T09:18:28;1.50;;;1.40;;
15608;SDS011;28705;45.642;13.758;2022-08-02T09:20:56;1.63;;;1.52;;
15608;SDS011;28705;45.642;13.758;2022-08-02T09:23:25;2.08;;;1.33;;
15608;SDS011;28705;45.642;13.758;2022-08-02T09:26:00;2.50;;;1.58;;
15608;SDS011;28705;45.642;13.758;2022-08-02T09:28:29;2.58;;;2.33;;
15608;SDS011;28705;45.642;13.758;2022-08-02T09:31:02;4.50;;;1.52;;
15608;SDS011;28705;45.642;13.758;2022-08-02T09:33:30;1.58;;;1.48;;
15608;SDS011;28705;45.642;13.758;2022-08-02T09:35:58;3.38;;;1.35;;
15608;SDS011;28705;45.642;13.758;2022-08-02T09:38:26;1.52;;;1.33;;
15608;SDS011;28705;45.642;13.758;2022-08-02T09:40:54;1.80;;;1.40;;
15608;SDS011;28705;45.642;13.758;2022-08-02T09:43:34;1.60;;;1.50;;
15608;SDS011;28705;45.642;13.758;2022-08-02T09:46:09;1.80;;;1.70;;
15608;SDS011;28705;45.642;13.758;2022-08-02T09:48:47;1.70;;;1.60;;
15608;SDS011;28705;45.642;13.758;2022-08-02T09:51:19;1.85;;;1.70;;
15608;SDS011;28705;45.642;13.758;2022-08-02T09:53:48;3.03;;;2.00;;
15608;SDS011;28705;45.642;13.758;2022-08-02T09:56:16;3.50;;;1.38;;
15608;SDS011;28705;45.642;13.758;2022-08-02T09:58:45;2.67;;;1.60;;
15608;SDS011;28705;45.642;13.758;2022-08-02T10:01:13;2.72;;;1.52;;
15608;SDS011;28705;45.642;13.758;2022-08-02T10:03:53;1.52;;;1.40;;
15608;SDS011;28705;45.642;13.758;2022-08-02T10:06:21;1.67;;;1.58;;
15608;SDS011;28705;45.642;13.758;2022-08-02T10:08:49;3.95;;;1.92;;
15608;SDS011;28705;45.642;13.758;2022-08-02T10:11:17;4.03;;;1.60;;
15608;SDS011;28705;45.642;13.758;2022-08-02T10:13:47;1.35;;;1.30;;
15608;SDS011;28705;45.642;13.758;2022-08-02T10:16:15;1.33;;;1.23;;
15608;SDS011;28705;45.642;13.758;2022-08-02T10:18:44;1.30;;;1.20;;
15608;SDS011;28705;45.642;13.758;2022-08-02T10:21:12;1.20;;;1.20;;
15608;SDS011;28705;45.642;13.758;2022-08-02T10:23:41;1.55;;;1.42;;
15608;SDS011;28705;45.642;13.758;2022-08-02T10:26:14;1.27;;;1.25;;
15608;SDS011;28705;45.642;13.758;2022-08-02T10:28:43;3.65;;;1.60;;
15608;SDS011;28705;45.642;13.758;2022-08-02T10:31:14;1.50;;;1.30;;
15608;SDS011;28705;45.642;13.758;2022-08-02T10:33:44;1.30;;;1.30;;
15608;SDS011;28705;45.642;13.758;2022-08-02T10:36:13;1.23;;;1.13;;
15608;SDS011;28705;45.642;13.758;2022-08-02T10:38:40;1.50;;;1.40;;
15608;SDS011;28705;45.642;13.758;2022-08-02T10:41:10;2.13;;;1.80;;
15608;SDS011;28705;45.642;13.758;2022-08-02T10:43:41;1.60;;;1.48;;
15608;SDS011;28705;45.642;13.758;2022-08-02T10:46:21;1.98;;;1.70;;
15608;SDS011;28705;45.642;13.758;2022-08-02T10:49:02;2.20;;;1.38;;
15608;SDS011;28705;45.642;13.758;2022-08-02T10:54:39;1.73;;;1.40;;
15608;SDS011;28705;45.642;13.758;2022-08-02T10:57:15;2.35;;;1.60;;
15608;SDS011;28705;45.642;13.758;2022-08-02T10:59:46;3.78;;;1.65;;
15608;SDS011;28705;45.642;13.758;2022-08-02T11:05:08;1.48;;;1.08;;
15608;SDS011;28705;45.642;13.758;2022-08-02T11:07:52;1.67;;;1.45;;
15608;SDS011;28705;45.642;13.758;2022-08-02T11:10:27;1.60;;;1.50;;
15608;SDS011;28705;45.642;13.758;2022-08-02T11:13:12;1.48;;;1.38;;
15608;SDS011;28705;45.642;13.758;2022-08-02T11:15:47;1.25;;;1.15;;
15608;SDS011;28705;45.642;13.758;2022-08-02T11:18:20;2.47;;;1.70;;
15608;SDS011;28705;45.642;13.758;2022-08-02T11:21:20;4.53;;;1.35;;
15608;SDS011;28705;45.642;13.758;2022-08-02T11:23:49;4.88;;;1.60;;
15608;SDS011;28705;45.642;13.758;2022-08-02T11:29:19;2.40;;;1.58;;
15608;SDS011;28705;45.642;13.758;2022-08-02T11:31:47;1.65;;;1.35;;
15608;SDS011;28705;45.642;13.758;2022-08-02T11:34:16;2.97;;;1.42;;
15608;SDS011;28705;45.642;13.758;2022-08-02T11:36:44;2.10;;;1.38;;
15608;SDS011;28705;45.642;13.758;2022-08-02T11:39:12;2.97;;;1.30;;
15608;SDS011;28705;45.642;13.758;2022-08-02T11:41:40;1.50;;;1.30;;
15608;SDS011;28705;45.642;13.758;2022-08-02T11:44:07;1.88;;;1.63;;
15608;SDS011;28705;45.642;13.758;2022-08-02T11:46:35;3.55;;;1.70;;
15608;SDS011;28705;45.642;13.758;2022-08-02T11:49:12;2.38;;;1.40;;
15608;SDS011;28705;45.642;13.758;2022-08-02T11:51:51;1.30;;;1.20;;
15608;SDS011;28705;45.642;13.758;2022-08-02T11:54:22;1.48;;;1.38;;
15608;SDS011;28705;45.642;13.758;2022-08-02T11:56:50;2.28;;;1.52;;
15608;SDS011;28705;45.642;13.758;2022-08-02T11:59:17;1.77;;;1.67;;
15608;SDS011;28705;45.642;13.758;2022-08-02T12:01:44;2.28;;;1.20;;
15608;SDS011;28705;45.642;13.758;2022-08-02T12:04:14;2.08;;;1.50;;
15608;SDS011;28705;45.642;13.758;2022-08-02T12:06:43;5.25;;;1.60;;
15608;SDS011;28705;45.642;13.758;2022-08-02T12:09:20;3.42;;;1.30;;
15608;SDS011;28705;45.642;13.758;2022-08-02T12:11:47;2.20;;;1.20;;
15608;SDS011;28705;45.642;13.758;2022-08-02T12:14:15;2.35;;;1.60;;
15608;SDS011;28705;45.642;13.758;2022-08-02T12:16:43;3.75;;;1.60;;
15608;SDS011;28705;45.642;13.758;2022-08-02T12:19:27;3.58;;;1.77;;
15608;SDS011;28705;45.642;13.758;2022-08-02T12:22:12;2.80;;;1.83;;
15608;SDS011;28705;45.642;13.758;2022-08-02T12:24:42;1.75;;;1.23;;
15608;SDS011;28705;45.642;13.758;2022-08-02T12:27:26;3.30;;;1.40;;
15608;SDS011;28705;45.642;13.758;2022-08-02T12:29:57;3.13;;;1.33;;
15608;SDS011;28705;45.642;13.758;2022-08-02T12:32:26;2.50;;;1.58;;
15608;SDS011;28705;45.642;13.758;2022-08-02T12:35:04;2.60;;;1.30;;
15608;SDS011;28705;45.642;13.758;2022-08-02T12:37:35;3.40;;;1.60;;
15608;SDS011;28705;45.642;13.758;2022-08-02T12:40:17;1.63;;;1.45;;
15608;SDS011;28705;45.642;13.758;2022-08-02T12:42:46;3.03;;;1.30;;
15608;SDS011;28705;45.642;13.758;2022-08-02T12:45:14;2.55;;;1.40;;
15608;SDS011;28705;45.642;13.758;2022-08-02T12:47:45;1.65;;;1.30;;
15608;SDS011;28705;45.642;13.758;2022-08-02T12:50:14;1.42;;;1.33;;
15608;SDS011;28705;45.642;13.758;2022-08-02T12:52:46;1.45;;;1.20;;
15608;SDS011;28705;45.642;13.758;2022-08-02T12:55:14;2.88;;;1.30;;
15608;SDS011;28705;45.642;13.758;2022-08-02T12:57:52;1.70;;;1.52;;
15608;SDS011;28705;45.642;13.758;2022-08-02T13:00:24;1.00;;;1.00;;
15608;SDS011;28705;45.642;13.758;2022-08-02T13:02:53;1.25;;;1.15;;
15608;SDS011;28705;45.642;13.758;2022-08-02T13:05:35;1.60;;;1.50;;
15608;SDS011;28705;45.642;13.758;2022-08-02T13:08:04;3.75;;;1.40;;
15608;SDS011;28705;45.642;13.758;2022-08-02T13:10:31;2.95;;;1.35;;
15608;SDS011;28705;45.642;13.758;2022-08-02T13:12:58;2.10;;;1.42;;
15608;SDS011;28705;45.642;13.758;2022-08-02T13:15:26;2.20;;;1.38;;
15608;SDS011;28705;45.642;13.758;2022-08-02T13:17:53;1.77;;;1.20;;
15608;SDS011;28705;45.642;13.758;2022-08-02T13:20:22;1.35;;;1.25;;
15608;SDS011;28705;45.642;13.758;2022-08-02T13:22:51;1.52;;;1.10;;
15608;SDS011;28705;45.642;13.758;2022-08-02T13:25:20;1.60;;;1.13;;
15608;SDS011;28705;45.642;13.758;2022-08-02T13:27:47;1.45;;;1.30;;
15608;SDS011;28705;45.642;13.758;2022-08-02T13:30:14;2.83;;;1.50;;
15608;SDS011;28705;45.642;13.758;2022-08-02T13:32:43;1.55;;;1.45;;
15608;SDS011;28705;45.642;13.758;2022-08-02T13:35:10;1.83;;;1.20;;
15608;SDS011;28705;45.642;13.758;2022-08-02T13:37:37;1.30;;;1.20;;
15608;SDS011;28705;45.642;13.758;2022-08-02T13:40:06;1.58;;;1.10;;
15608;SDS011;28705;45.642;13.758;2022-08-02T13:42:35;1.00;;;0.90;;
15608;SDS011;28705;45.642;13.758;2022-08-02T13:45:02;1.23;;;1.10;;
15608;SDS011;28705;45.642;13.758;2022-08-02T13:47:30;2.45;;;1.23;;
15608;SDS011;28705;45.642;13.758;2022-08-02T13:49:57;1.25;;;1.20;;
15608;SDS011;28705;45.642;13.758;2022-08-02T13:52:24;1.27;;;1.17;;
15608;SDS011;28705;45.642;13.758;2022-08-02T13:57:41;1.17;;;1.17;;
15608;SDS011;28705;45.642;13.758;2022-08-02T14:00:08;1.42;;;1.33;;
15608;SDS011;28705;45.642;13.758;2022-08-02T14:02:36;2.05;;;1.42;;
15608;SDS011;28705;45.642;13.758;2022-08-02T14:05:04;1.23;;;1.13;;
15608;SDS011;28705;45.642;13.758;2022-08-02T14:07:31;1.83;;;1.13;;
15608;SDS011;28705;45.642;13.758;2022-08-02T14:09:58;1.27;;;1.10;;
15608;SDS011;28705;45.642;13.758;2022-08-02T14:12:25;1.02;;;1.02;;
15608;SDS011;28705;45.642;13.758;2022-08-02T14:14:53;1.70;;;1.20;;
15608;SDS011;28705;45.642;13.758;2022-08-02T14:17:20;1.60;;;1.10;;
15608;SDS011;28705;45.642;13.758;2022-08-02T14:19:47;1.02;;;1.02;;
15608;SDS011;28705;45.642;13.758;2022-08-02T14:22:14;1.33;;;1.23;;
15608;SDS011;28705;45.642;13.758;2022-08-02T14:24:41;1.27;;;1.08;;
15608;SDS011;28705;45.642;13.758;2022-08-02T14:27:09;2.05;;;0.98;;
15608;SDS011;28705;45.642;13.758;2022-08-02T14:29:36;1.98;;;1.80;;
15608;SDS011;28705;45.642;13.758;2022-08-02T14:32:04;1.30;;;1.20;;
15608;SDS011;28705;45.642;13.758;2022-08-02T14:34:32;1.63;;;1.02;;
15608;SDS011;28705;45.642;13.758;2022-08-02T14:36:58;1.08;;;0.98;;
15608;SDS011;28705;45.642;13.758;2022-08-02T14:39:25;1.02;;;0.93;;
15608;SDS011;28705;45.642;13.758;2022-08-02T14:41:52;1.23;;;1.13;;
15608;SDS011;28705;45.642;13.758;2022-08-02T14:44:19;1.20;;;1.10;;
15608;SDS011;28705;45.642;13.758;2022-08-02T14:46:46;1.10;;;1.10;;
15608;SDS011;28705;45.642;13.758;2022-08-02T14:49:15;1.48;;;1.33;;
15608;SDS011;28705;45.642;13.758;2022-08-02T14:51:42;2.40;;;1.17;;
15608;SDS011;28705;45.642;13.758;2022-08-02T14:54:09;1.20;;;1.10;;
15608;SDS011;28705;45.642;13.758;2022-08-02T14:56:36;2.15;;;1.20;;
15608;SDS011;28705;45.642;13.758;2022-08-02T14:59:03;1.20;;;1.10;;